sensor_id;sensor_type;location;lat;lon;timestamp;pressure;altitude;pressure_sealevel;temperature;humidity
79123;BME280;68526;44.600;26.032;2024-02-23T00:00:02;100252.47;;;5.11;69.08
79123;BME280;68526;44.600;26.032;2024-02-23T00:00:20;100252.16;;;5.12;68.94
79123;BME280;68526;44.600;26.032;2024-02-23T00:00:36;100246.50;;;5.08;69.12
79123;BME280;68526;44.600;26.032;2024-02-23T00:00:53;100254.63;;;5.08;69.15
79123;BME280;68526;44.600;26.032;2024-02-23T00:01:10;100248.94;;;5.10;68.95
79123;BME280;68526;44.600;26.032;2024-02-23T00:01:27;100249.44;;;5.12;69.26
79123;BME280;68526;44.600;26.032;2024-02-23T00:01:43;100252.47;;;5.11;68.95
79123;BME280;68526;44.600;26.032;2024-02-23T00:01:59;100245.38;;;5.09;68.94
79123;BME280;68526;44.600;26.032;2024-02-23T00:02:15;100252.72;;;5.09;68.73
79123;BME280;68526;44.600;26.032;2024-02-23T00:02:31;100249.19;;;5.08;68.81
79123;BME280;68526;44.600;26.032;2024-02-23T00:02:47;100247.59;;;5.07;68.73
79123;BME280;68526;44.600;26.032;2024-02-23T00:03:04;100233.50;;;5.05;68.85
79123;BME280;68526;44.600;26.032;2024-02-23T00:03:21;100252.22;;;5.07;68.88
79123;BME280;68526;44.600;26.032;2024-02-23T00:03:37;100240.53;;;5.06;68.93
79123;BME280;68526;44.600;26.032;2024-02-23T00:03:53;100245.16;;;5.06;69.14
79123;BME280;68526;44.600;26.032;2024-02-23T00:04:11;100244.63;;;5.04;69.44
79123;BME280;68526;44.600;26.032;2024-02-23T00:04:27;100248.16;;;5.04;69.24
79123;BME280;68526;44.600;26.032;2024-02-23T00:04:43;100243.00;;;5.03;69.12
79123;BME280;68526;44.600;26.032;2024-02-23T00:05:00;100248.97;;;5.05;69.21
79123;BME280;68526;44.600;26.032;2024-02-23T00:05:17;100245.47;;;5.04;69.22
79123;BME280;68526;44.600;26.032;2024-02-23T00:05:33;100261.75;;;5.04;68.86
79123;BME280;68526;44.600;26.032;2024-02-23T00:05:50;100243.00;;;5.03;68.92
79123;BME280;68526;44.600;26.032;2024-02-23T00:06:06;100242.75;;;5.04;68.96
79123;BME280;68526;44.600;26.032;2024-02-23T00:06:24;100249.25;;;5.03;69.22
79123;BME280;68526;44.600;26.032;2024-02-23T00:06:43;100237.56;;;5.03;68.77
79123;BME280;68526;44.600;26.032;2024-02-23T00:06:59;100233.53;;;5.00;69.13
79123;BME280;68526;44.600;26.032;2024-02-23T00:07:17;100237.31;;;5.04;69.01
79123;BME280;68526;44.600;26.032;2024-02-23T00:07:33;100241.91;;;5.04;68.95
79123;BME280;68526;44.600;26.032;2024-02-23T00:07:49;100240.59;;;5.01;69.01
79123;BME280;68526;44.600;26.032;2024-02-23T00:08:07;100238.97;;;5.00;68.94
79123;BME280;68526;44.600;26.032;2024-02-23T00:08:23;100237.31;;;5.04;68.95
79123;BME280;68526;44.600;26.032;2024-02-23T00:08:39;100238.13;;;5.05;69.08
79123;BME280;68526;44.600;26.032;2024-02-23T00:08:56;100249.78;;;5.05;68.94
79123;BME280;68526;44.600;26.032;2024-02-23T00:09:14;100238.38;;;5.03;69.15
79123;BME280;68526;44.600;26.032;2024-02-23T00:09:30;100246.53;;;5.03;68.97
79123;BME280;68526;44.600;26.032;2024-02-23T00:09:45;100249.25;;;5.03;69.06
79123;BME280;68526;44.600;26.032;2024-02-23T00:10:02;100243.00;;;5.03;69.21
79123;BME280;68526;44.600;26.032;2024-02-23T00:10:18;100245.16;;;5.06;69.75
79123;BME280;68526;44.600;26.032;2024-02-23T00:10:34;100244.91;;;5.02;69.64
79123;BME280;68526;44.600;26.032;2024-02-23T00:10:50;100246.81;;;5.02;69.64
79123;BME280;68526;44.600;26.032;2024-02-23T00:11:06;100250.38;;;4.97;70.02
79123;BME280;68526;44.600;26.032;2024-02-23T00:11:24;100249.88;;;4.95;70.20
79123;BME280;68526;44.600;26.032;2024-02-23T00:11:40;100244.16;;;4.97;69.71
79123;BME280;68526;44.600;26.032;2024-02-23T00:11:59;100248.22;;;4.99;69.94
79123;BME280;68526;44.600;26.032;2024-02-23T00:12:15;100248.22;;;4.99;69.72
79123;BME280;68526;44.600;26.032;2024-02-23T00:12:31;100249.03;;;5.00;69.87
79123;BME280;68526;44.600;26.032;2024-02-23T00:12:47;100256.06;;;5.01;70.05
79123;BME280;68526;44.600;26.032;2024-02-23T00:13:04;100253.06;;;5.02;69.97
79123;BME280;68526;44.600;26.032;2024-02-23T00:13:21;100257.69;;;5.02;69.49
79123;BME280;68526;44.600;26.032;2024-02-23T00:13:37;100249.53;;;5.02;69.63
79123;BME280;68526;44.600;26.032;2024-02-23T00:13:53;100253.88;;;5.03;69.39
79123;BME280;68526;44.600;26.032;2024-02-23T00:14:09;100249.53;;;5.02;69.63
79123;BME280;68526;44.600;26.032;2024-02-23T00:14:25;100261.75;;;5.04;69.17
79123;BME280;68526;44.600;26.032;2024-02-23T00:14:42;100251.19;;;4.98;69.28
79123;BME280;68526;44.600;26.032;2024-02-23T00:14:58;100252.75;;;5.04;69.15
79123;BME280;68526;44.600;26.032;2024-02-23T00:15:14;100251.69;;;5.05;69.24
79123;BME280;68526;44.600;26.032;2024-02-23T00:15:30;100252.22;;;5.07;69.25
79123;BME280;68526;44.600;26.032;2024-02-23T00:15:46;100258.75;;;5.06;69.33
79123;BME280;68526;44.600;26.032;2024-02-23T00:16:03;100250.59;;;5.06;69.34
79123;BME280;68526;44.600;26.032;2024-02-23T00:16:19;100254.13;;;5.06;69.52
79123;BME280;68526;44.600;26.032;2024-02-23T00:16:37;100261.97;;;5.08;69.29
79123;BME280;68526;44.600;26.032;2024-02-23T00:16:55;100253.81;;;5.08;69.77
79123;BME280;68526;44.600;26.032;2024-02-23T00:17:12;100244.56;;;5.09;69.75
79123;BME280;68526;44.600;26.032;2024-02-23T00:17:28;100255.44;;;5.09;69.69
79123;BME280;68526;44.600;26.032;2024-02-23T00:17:44;100249.78;;;5.05;69.46
79123;BME280;68526;44.600;26.032;2024-02-23T00:18:00;100254.63;;;5.08;69.52
79123;BME280;68526;44.600;26.032;2024-02-23T00:18:18;100255.72;;;5.07;69.86
79123;BME280;68526;44.600;26.032;2024-02-23T00:18:35;100254.38;;;5.10;69.48
79123;BME280;68526;44.600;26.032;2024-02-23T00:18:51;100247.03;;;5.11;69.80
79123;BME280;68526;44.600;26.032;2024-02-23T00:19:07;100247.53;;;5.13;69.98
79123;BME280;68526;44.600;26.032;2024-02-23T00:19:25;100250.25;;;5.13;69.68
79123;BME280;68526;44.600;26.032;2024-02-23T00:19:41;100244.81;;;5.13;69.55
79123;BME280;68526;44.600;26.032;2024-02-23T00:19:57;100255.69;;;5.13;69.77
79123;BME280;68526;44.600;26.032;2024-02-23T00:20:13;100245.63;;;5.13;69.71
79123;BME280;68526;44.600;26.032;2024-02-23T00:20:30;100249.97;;;5.14;69.49
79123;BME280;68526;44.600;26.032;2024-02-23T00:20:46;100253.50;;;5.15;69.56
79123;BME280;68526;44.600;26.032;2024-02-23T00:21:04;100249.41;;;5.17;69.04
79123;BME280;68526;44.600;26.032;2024-02-23T00:21:21;100250.22;;;5.18;69.45
79123;BME280;68526;44.600;26.032;2024-02-23T00:21:37;100247.78;;;5.16;69.44
79123;BME280;68526;44.600;26.032;2024-02-23T00:21:53;100254.53;;;5.19;69.09
79123;BME280;68526;44.600;26.032;2024-02-23T00:22:09;100246.41;;;5.19;69.15
79123;BME280;68526;44.600;26.032;2024-02-23T00:22:26;100246.41;;;5.19;69.61
79123;BME280;68526;44.600;26.032;2024-02-23T00:22:42;100243.69;;;5.19;69.32
79123;BME280;68526;44.600;26.032;2024-02-23T00:22:59;100243.69;;;5.19;69.46
79123;BME280;68526;44.600;26.032;2024-02-23T00:23:17;100249.91;;;5.19;69.41
79123;BME280;68526;44.600;26.032;2024-02-23T00:23:34;100243.38;;;5.20;69.16
79123;BME280;68526;44.600;26.032;2024-02-23T00:23:50;100240.16;;;5.18;69.47
79123;BME280;68526;44.600;26.032;2024-02-23T00:24:07;100239.66;;;5.16;69.45
79123;BME280;68526;44.600;26.032;2024-02-23T00:24:22;100248.88;;;5.15;69.81
79123;BME280;68526;44.600;26.032;2024-02-23T00:24:38;100241.53;;;5.16;69.66
79123;BME280;68526;44.600;26.032;2024-02-23T00:24:56;100244.78;;;5.18;69.39
79123;BME280;68526;44.600;26.032;2024-02-23T00:25:13;100243.16;;;5.17;69.80
79123;BME280;68526;44.600;26.032;2024-02-23T00:25:29;100243.69;;;5.19;69.71
79123;BME280;68526;44.600;26.032;2024-02-23T00:25:45;100246.41;;;5.19;69.33
79123;BME280;68526;44.600;26.032;2024-02-23T00:26:01;100248.31;;;5.18;69.36
79123;BME280;68526;44.600;26.032;2024-02-23T00:26:17;100246.69;;;5.17;69.57
79123;BME280;68526;44.600;26.032;2024-02-23T00:26:33;100247.50;;;5.18;69.38
79123;BME280;68526;44.600;26.032;2024-02-23T00:26:49;100251.03;;;5.18;69.82
79123;BME280;68526;44.600;26.032;2024-02-23T00:27:07;100248.31;;;5.18;70.19
79123;BME280;68526;44.600;26.032;2024-02-23T00:27:23;100245.34;;;5.15;70.33
79123;BME280;68526;44.600;26.032;2024-02-23T00:27:39;100243.72;;;5.14;69.78
79123;BME280;68526;44.600;26.032;2024-02-23T00:27:57;100248.59;;;5.17;69.75
79123;BME280;68526;44.600;26.032;2024-02-23T00:28:13;100243.16;;;5.17;69.78
79123;BME280;68526;44.600;26.032;2024-02-23T00:28:29;100241.81;;;5.14;69.57
79123;BME280;68526;44.600;26.032;2024-02-23T00:28:46;100240.97;;;5.19;69.94
79123;BME280;68526;44.600;26.032;2024-02-23T00:29:02;100247.22;;;5.19;69.67
79123;BME280;68526;44.600;26.032;2024-02-23T00:29:18;100242.38;;;5.16;70.13
79123;BME280;68526;44.600;26.032;2024-02-23T00:29:34;100247.50;;;5.18;69.54
79123;BME280;68526;44.600;26.032;2024-02-23T00:29:50;100240.72;;;5.15;69.59
79123;BME280;68526;44.600;26.032;2024-02-23T00:30:07;100240.72;;;5.15;70.09
79123;BME280;68526;44.600;26.032;2024-02-23T00:30:23;100242.41;;;5.11;69.96
79123;BME280;68526;44.600;26.032;2024-02-23T00:30:40;100242.66;;;5.09;70.44
79123;BME280;68526;44.600;26.032;2024-02-23T00:30:56;100236.69;;;5.13;70.15
79123;BME280;68526;44.600;26.032;2024-02-23T00:31:12;100243.16;;;5.17;70.40
79123;BME280;68526;44.600;26.032;2024-02-23T00:31:28;100239.09;;;5.14;70.16
79123;BME280;68526;44.600;26.032;2024-02-23T00:31:44;100243.44;;;5.15;70.66
79123;BME280;68526;44.600;26.032;2024-02-23T00:32:00;100236.69;;;5.13;70.73
79123;BME280;68526;44.600;26.032;2024-02-23T00:32:17;100240.72;;;5.15;70.60
79123;BME280;68526;44.600;26.032;2024-02-23T00:32:34;100248.88;;;5.15;70.27
79123;BME280;68526;44.600;26.032;2024-02-23T00:32:50;100244.78;;;5.18;70.22
79123;BME280;68526;44.600;26.032;2024-02-23T00:33:06;100239.34;;;5.18;70.11
79123;BME280;68526;44.600;26.032;2024-02-23T00:33:22;100247.22;;;5.19;70.17
79123;BME280;68526;44.600;26.032;2024-02-23T00:33:38;100239.88;;;5.20;70.44
79123;BME280;68526;44.600;26.032;2024-02-23T00:33:57;100244.78;;;5.18;70.31
79123;BME280;68526;44.600;26.032;2024-02-23T00:34:14;100244.25;;;5.16;70.88
79123;BME280;68526;44.600;26.032;2024-02-23T00:34:31;100243.69;;;5.19;71.03
79123;BME280;68526;44.600;26.032;2024-02-23T00:34:47;100243.69;;;5.19;71.52
79123;BME280;68526;44.600;26.032;2024-02-23T00:35:04;100251.53;;;5.20;71.67
79123;BME280;68526;44.600;26.032;2024-02-23T00:35:20;100244.50;;;5.19;71.62
79123;BME280;68526;44.600;26.032;2024-02-23T00:35:36;100251.28;;;5.22;71.49
79123;BME280;68526;44.600;26.032;2024-02-23T00:35:53;100244.19;;;5.21;71.52
79123;BME280;68526;44.600;26.032;2024-02-23T00:36:10;100243.13;;;5.22;71.88
79123;BME280;68526;44.600;26.032;2024-02-23T00:36:26;100240.69;;;5.20;71.80
79123;BME280;68526;44.600;26.032;2024-02-23T00:36:43;100236.63;;;5.18;71.69
79123;BME280;68526;44.600;26.032;2024-02-23T00:37:00;100242.03;;;5.23;71.83
79123;BME280;68526;44.600;26.032;2024-02-23T00:37:16;100243.94;;;5.22;71.26
79123;BME280;68526;44.600;26.032;2024-02-23T00:37:32;100240.91;;;5.24;71.52
79123;BME280;68526;44.600;26.032;2024-02-23T00:37:50;100241.44;;;5.26;71.33
79123;BME280;68526;44.600;26.032;2024-02-23T00:38:07;100237.63;;;5.27;71.17
79123;BME280;68526;44.600;26.032;2024-02-23T00:38:23;100230.28;;;5.27;70.96
79123;BME280;68526;44.600;26.032;2024-02-23T00:38:39;100235.44;;;5.29;70.98
79123;BME280;68526;44.600;26.032;2024-02-23T00:38:55;100233.81;;;5.28;71.30
79123;BME280;68526;44.600;26.032;2024-02-23T00:39:12;100241.97;;;5.28;71.39
79123;BME280;68526;44.600;26.032;2024-02-23T00:39:28;100230.28;;;5.27;71.36
79123;BME280;68526;44.600;26.032;2024-02-23T00:39:44;100234.34;;;5.30;71.21
79123;BME280;68526;44.600;26.032;2024-02-23T00:40:01;100230.00;;;5.29;71.19
79123;BME280;68526;44.600;26.032;2024-02-23T00:40:19;100226.19;;;5.30;71.29
79123;BME280;68526;44.600;26.032;2024-02-23T00:40:35;100240.56;;;5.30;71.16
79123;BME280;68526;44.600;26.032;2024-02-23T00:40:51;100228.66;;;5.26;71.25
79123;BME280;68526;44.600;26.032;2024-02-23T00:41:07;100234.03;;;5.31;70.76
79123;BME280;68526;44.600;26.032;2024-02-23T00:41:23;100227.81;;;5.31;71.21
79123;BME280;68526;44.600;26.032;2024-02-23T00:41:39;100236.75;;;5.31;71.26
79123;BME280;68526;44.600;26.032;2024-02-23T00:41:56;100241.38;;;5.31;71.16
79123;BME280;68526;44.600;26.032;2024-02-23T00:42:12;100232.44;;;5.30;71.08
79123;BME280;68526;44.600;26.032;2024-02-23T00:42:28;100229.19;;;5.28;70.92
79123;BME280;68526;44.600;26.032;2024-02-23T00:42:44;100232.72;;;5.29;70.94
79123;BME280;68526;44.600;26.032;2024-02-23T00:43:00;100241.13;;;5.27;71.16
79123;BME280;68526;44.600;26.032;2024-02-23T00:43:18;100236.25;;;5.29;71.06
79123;BME280;68526;44.600;26.032;2024-02-23T00:43:38;100234.34;;;5.30;70.83
79123;BME280;68526;44.600;26.032;2024-02-23T00:43:54;100235.16;;;5.30;70.75
79123;BME280;68526;44.600;26.032;2024-02-23T00:44:11;100228.91;;;5.30;70.63
79123;BME280;68526;44.600;26.032;2024-02-23T00:44:28;100223.69;;;5.33;70.59
79123;BME280;68526;44.600;26.032;2024-02-23T00:44:44;100227.50;;;5.32;70.50
79123;BME280;68526;44.600;26.032;2024-02-23T00:45:00;100231.84;;;5.33;70.49
79123;BME280;68526;44.600;26.032;2024-02-23T00:45:16;100230.78;;;5.34;70.53
79123;BME280;68526;44.600;26.032;2024-02-23T00:45:32;100225.34;;;5.34;70.05
79123;BME280;68526;44.600;26.032;2024-02-23T00:45:48;100226.41;;;5.33;70.55
79123;BME280;68526;44.600;26.032;2024-02-23T00:46:05;100223.69;;;5.33;70.05
79123;BME280;68526;44.600;26.032;2024-02-23T00:46:21;100224.53;;;5.34;70.00
79123;BME280;68526;44.600;26.032;2024-02-23T00:46:37;100231.84;;;5.33;70.17
79123;BME280;68526;44.600;26.032;2024-02-23T00:46:52;100224.78;;;5.32;69.99
79123;BME280;68526;44.600;26.032;2024-02-23T00:47:09;100225.91;;;5.31;70.45
79123;BME280;68526;44.600;26.032;2024-02-23T00:47:26;100219.94;;;5.29;70.61
79123;BME280;68526;44.600;26.032;2024-02-23T00:47:43;100223.97;;;5.32;70.28
79123;BME280;68526;44.600;26.032;2024-02-23T00:48:01;100226.19;;;5.30;70.59
79123;BME280;68526;44.600;26.032;2024-02-23T00:48:17;100228.63;;;5.31;70.41
79123;BME280;68526;44.600;26.032;2024-02-23T00:48:33;100224.78;;;5.32;70.45
79123;BME280;68526;44.600;26.032;2024-02-23T00:48:49;100229.97;;;5.34;70.53
79123;BME280;68526;44.600;26.032;2024-02-23T00:49:05;100225.91;;;5.31;70.04
79123;BME280;68526;44.600;26.032;2024-02-23T00:49:22;100219.66;;;5.31;70.19
79123;BME280;68526;44.600;26.032;2024-02-23T00:49:38;100223.19;;;5.31;70.48
79123;BME280;68526;44.600;26.032;2024-02-23T00:49:55;100225.59;;;5.33;70.29
79123;BME280;68526;44.600;26.032;2024-02-23T00:50:10;100220.97;;;5.33;70.58
79123;BME280;68526;44.600;26.032;2024-02-23T00:50:27;100223.69;;;5.33;70.14
79123;BME280;68526;44.600;26.032;2024-02-23T00:50:43;100215.84;;;5.32;70.54
79123;BME280;68526;44.600;26.032;2024-02-23T00:51:00;100222.88;;;5.33;70.29
79123;BME280;68526;44.600;26.032;2024-02-23T00:51:18;100218.84;;;5.30;70.58
79123;BME280;68526;44.600;26.032;2024-02-23T00:51:34;100223.19;;;5.31;70.46
79123;BME280;68526;44.600;26.032;2024-02-23T00:51:50;100226.41;;;5.33;70.40
79123;BME280;68526;44.600;26.032;2024-02-23T00:52:07;100215.84;;;5.32;70.49
79123;BME280;68526;44.600;26.032;2024-02-23T00:52:23;100220.47;;;5.31;70.60
79123;BME280;68526;44.600;26.032;2024-02-23T00:52:39;100219.66;;;5.31;70.02
79123;BME280;68526;44.600;26.032;2024-02-23T00:52:56;100218.34;;;5.28;70.43
79123;BME280;68526;44.600;26.032;2024-02-23T00:53:12;100216.94;;;5.31;70.17
79123;BME280;68526;44.600;26.032;2024-02-23T00:53:30;100210.69;;;5.30;70.20
79123;BME280;68526;44.600;26.032;2024-02-23T00:53:46;100214.53;;;5.29;69.80
79123;BME280;68526;44.600;26.032;2024-02-23T00:54:03;100212.09;;;5.28;69.90
79123;BME280;68526;44.600;26.032;2024-02-23T00:54:19;100203.41;;;5.26;70.11
79123;BME280;68526;44.600;26.032;2024-02-23T00:54:35;100203.94;;;5.28;70.25
79123;BME280;68526;44.600;26.032;2024-02-23T00:54:51;100202.91;;;5.24;70.18
79123;BME280;68526;44.600;26.032;2024-02-23T00:55:07;100209.13;;;5.24;70.12
79123;BME280;68526;44.600;26.032;2024-02-23T00:55:23;100211.56;;;5.26;70.26
79123;BME280;68526;44.600;26.032;2024-02-23T00:55:40;100204.50;;;5.25;70.28
79123;BME280;68526;44.600;26.032;2024-02-23T00:55:58;100201.50;;;5.26;70.30
79123;BME280;68526;44.600;26.032;2024-02-23T00:56:14;100205.03;;;5.27;69.77
79123;BME280;68526;44.600;26.032;2024-02-23T00:56:30;100199.59;;;5.27;69.81
79123;BME280;68526;44.600;26.032;2024-02-23T00:56:46;100201.78;;;5.25;70.18
79123;BME280;68526;44.600;26.032;2024-02-23T00:57:02;100205.31;;;5.25;69.87
79123;BME280;68526;44.600;26.032;2024-02-23T00:57:18;100200.69;;;5.26;69.64
79123;BME280;68526;44.600;26.032;2024-02-23T00:57:38;100195.56;;;5.24;69.63
79123;BME280;68526;44.600;26.032;2024-02-23T00:57:55;100199.88;;;5.25;69.43
79123;BME280;68526;44.600;26.032;2024-02-23T00:58:11;100201.28;;;5.23;69.95
79123;BME280;68526;44.600;26.032;2024-02-23T00:58:27;100199.13;;;5.20;69.61
79123;BME280;68526;44.600;26.032;2024-02-23T00:58:43;100198.03;;;5.21;69.94
79123;BME280;68526;44.600;26.032;2024-02-23T00:58:59;100192.59;;;5.21;69.88
79123;BME280;68526;44.600;26.032;2024-02-23T00:59:16;100199.13;;;5.20;69.55
79123;BME280;68526;44.600;26.032;2024-02-23T00:59:32;100197.81;;;5.17;69.73
79123;BME280;68526;44.600;26.032;2024-02-23T00:59:48;100200.53;;;5.17;70.16
79123;BME280;68526;44.600;26.032;2024-02-23T01:00:06;100199.97;;;5.15;70.04
79123;BME280;68526;44.600;26.032;2024-02-23T01:00:22;100200.56;;;5.12;70.29
79123;BME280;68526;44.600;26.032;2024-02-23T01:00:39;100203.00;;;5.14;69.89
79123;BME280;68526;44.600;26.032;2024-02-23T01:00:55;100205.41;;;5.15;70.39
79123;BME280;68526;44.600;26.032;2024-02-23T01:01:11;100199.72;;;5.17;70.10
79123;BME280;68526;44.600;26.032;2024-02-23T01:01:27;100196.47;;;5.15;70.21
79123;BME280;68526;44.600;26.032;2024-02-23T01:01:44;100202.44;;;5.17;70.44
79123;BME280;68526;44.600;26.032;2024-02-23T01:02:01;100202.13;;;5.18;70.32
79123;BME280;68526;44.600;26.032;2024-02-23T01:02:17;100194.00;;;5.18;70.41
79123;BME280;68526;44.600;26.032;2024-02-23T01:02:33;100203.81;;;5.14;70.58
79123;BME280;68526;44.600;26.032;2024-02-23T01:02:49;100202.69;;;5.15;70.57
79123;BME280;68526;44.600;26.032;2024-02-23T01:03:05;100199.72;;;5.17;70.43
79123;BME280;68526;44.600;26.032;2024-02-23T01:03:21;100203.50;;;5.16;70.33
79123;BME280;68526;44.600;26.032;2024-02-23T01:03:37;100208.13;;;5.15;70.40
79123;BME280;68526;44.600;26.032;2024-02-23T01:03:53;100198.66;;;5.13;70.85
79123;BME280;68526;44.600;26.032;2024-02-23T01:04:10;100203.81;;;5.14;70.48
79123;BME280;68526;44.600;26.032;2024-02-23T01:04:26;100205.72;;;5.14;70.89
79123;BME280;68526;44.600;26.032;2024-02-23T01:04:42;100205.19;;;5.12;70.71
79123;BME280;68526;44.600;26.032;2024-02-23T01:04:58;100202.22;;;5.08;71.07
79123;BME280;68526;44.600;26.032;2024-02-23T01:05:14;100207.97;;;5.06;71.10
79123;BME280;68526;44.600;26.032;2024-02-23T01:05:30;100200.91;;;5.05;70.93
79123;BME280;68526;44.600;26.032;2024-02-23T01:05:46;100204.72;;;5.04;70.74
79123;BME280;68526;44.600;26.032;2024-02-23T01:06:02;100204.44;;;5.06;71.07
79123;BME280;68526;44.600;26.032;2024-02-23T01:06:21;100206.06;;;5.07;70.51
79123;BME280;68526;44.600;26.032;2024-02-23T01:06:37;100202.22;;;5.08;70.74
79123;BME280;68526;44.600;26.032;2024-02-23T01:06:53;100201.13;;;5.09;70.67
79123;BME280;68526;44.600;26.032;2024-02-23T01:07:09;100202.47;;;5.12;70.70
79123;BME280;68526;44.600;26.032;2024-02-23T01:07:25;100206.00;;;5.12;70.45
79123;BME280;68526;44.600;26.032;2024-02-23T01:07:41;100202.78;;;5.10;70.65
79123;BME280;68526;44.600;26.032;2024-02-23T01:07:57;100200.31;;;5.08;70.90
79123;BME280;68526;44.600;26.032;2024-02-23T01:08:13;100200.06;;;5.10;71.02
79123;BME280;68526;44.600;26.032;2024-02-23T01:08:28;100205.19;;;5.12;71.00
79123;BME280;68526;44.600;26.032;2024-02-23T01:08:46;100201.94;;;5.09;70.84
79123;BME280;68526;44.600;26.032;2024-02-23T01:09:03;100204.09;;;5.13;70.46
79123;BME280;68526;44.600;26.032;2024-02-23T01:09:20;100200.28;;;5.14;70.68
79123;BME280;68526;44.600;26.032;2024-02-23T01:09:36;100203.50;;;5.16;70.34
79123;BME280;68526;44.600;26.032;2024-02-23T01:09:52;100195.66;;;5.14;70.66
79123;BME280;68526;44.600;26.032;2024-02-23T01:10:08;100199.97;;;5.15;70.19
79123;BME280;68526;44.600;26.032;2024-02-23T01:10:25;100199.97;;;5.15;70.53
79123;BME280;68526;44.600;26.032;2024-02-23T01:10:42;100202.69;;;5.15;70.79
79123;BME280;68526;44.600;26.032;2024-02-23T01:10:58;100197.00;;;5.17;70.40
79123;BME280;68526;44.600;26.032;2024-02-23T01:11:14;100200.78;;;5.16;70.42
79123;BME280;68526;44.600;26.032;2024-02-23T01:11:30;100191.56;;;5.17;70.16
79123;BME280;68526;44.600;26.032;2024-02-23T01:11:48;100191.03;;;5.15;70.19
79123;BME280;68526;44.600;26.032;2024-02-23T01:12:04;100191.03;;;5.15;70.34
79123;BME280;68526;44.600;26.032;2024-02-23T01:12:21;100199.97;;;5.15;70.46
79123;BME280;68526;44.600;26.032;2024-02-23T01:12:37;100196.47;;;5.15;70.36
79123;BME280;68526;44.600;26.032;2024-02-23T01:12:54;100188.38;;;5.09;70.18
79123;BME280;68526;44.600;26.032;2024-02-23T01:13:10;100187.28;;;5.11;70.13
79123;BME280;68526;44.600;26.032;2024-02-23T01:13:26;100184.63;;;5.05;70.68
79123;BME280;68526;44.600;26.032;2024-02-23T01:13:42;100195.69;;;5.09;70.33
79123;BME280;68526;44.600;26.032;2024-02-23T01:13:58;100193.78;;;5.09;70.21
79123;BME280;68526;44.600;26.032;2024-02-23T01:14:14;100192.72;;;5.11;70.49
79123;BME280;68526;44.600;26.032;2024-02-23T01:14:30;100193.22;;;5.13;70.45
79123;BME280;68526;44.600;26.032;2024-02-23T01:14:47;100195.94;;;5.13;70.31
79123;BME280;68526;44.600;26.032;2024-02-23T01:15:04;100189.72;;;5.12;70.52
79123;BME280;68526;44.600;26.032;2024-02-23T01:15:20;100197.84;;;5.12;70.35
79123;BME280;68526;44.600;26.032;2024-02-23T01:15:37;100191.63;;;5.12;70.63
79123;BME280;68526;44.600;26.032;2024-02-23T01:15:53;100196.47;;;5.15;70.39
79123;BME280;68526;44.600;26.032;2024-02-23T01:16:09;100192.66;;;5.16;70.15
79123;BME280;68526;44.600;26.032;2024-02-23T01:16:26;100190.75;;;5.16;70.26
79123;BME280;68526;44.600;26.032;2024-02-23T01:16:42;100191.03;;;5.15;70.31
79123;BME280;68526;44.600;26.032;2024-02-23T01:16:58;100193.47;;;5.16;70.70
79123;BME280;68526;44.600;26.032;2024-02-23T01:17:14;100196.19;;;5.16;70.18
79123;BME280;68526;44.600;26.032;2024-02-23T01:17:31;100188.63;;;5.13;70.45
79123;BME280;68526;44.600;26.032;2024-02-23T01:17:47;100196.47;;;5.15;70.57
79123;BME280;68526;44.600;26.032;2024-02-23T01:18:04;100195.91;;;5.18;70.74
79123;BME280;68526;44.600;26.032;2024-02-23T01:18:23;100190.75;;;5.16;70.38
79123;BME280;68526;44.600;26.032;2024-02-23T01:18:39;100196.19;;;5.16;70.31
79123;BME280;68526;44.600;26.032;2024-02-23T01:18:55;100193.69;;;5.20;70.85
79123;BME280;68526;44.600;26.032;2024-02-23T01:19:11;100196.41;;;5.20;70.34
79123;BME280;68526;44.600;26.032;2024-02-23T01:19:27;100196.41;;;5.20;70.69
79123;BME280;68526;44.600;26.032;2024-02-23T01:19:43;100201.34;;;5.18;71.14
79123;BME280;68526;44.600;26.032;2024-02-23T01:20:00;100200.78;;;5.16;70.72
79123;BME280;68526;44.600;26.032;2024-02-23T01:20:16;100195.91;;;5.18;70.90
79123;BME280;68526;44.600;26.032;2024-02-23T01:20:34;100197.25;;;5.15;70.99
79123;BME280;68526;44.600;26.032;2024-02-23T01:20:50;100197.50;;;5.19;71.01
79123;BME280;68526;44.600;26.032;2024-02-23T01:21:06;100190.75;;;5.16;70.74
79123;BME280;68526;44.600;26.032;2024-02-23T01:21:23;100193.19;;;5.18;70.74
79123;BME280;68526;44.600;26.032;2024-02-23T01:21:39;100191.56;;;5.17;70.80
79123;BME280;68526;44.600;26.032;2024-02-23T01:21:55;100196.72;;;5.18;70.64
79123;BME280;68526;44.600;26.032;2024-02-23T01:22:15;100187.47;;;5.19;70.90
79123;BME280;68526;44.600;26.032;2024-02-23T01:22:31;100198.03;;;5.21;70.99
79123;BME280;68526;44.600;26.032;2024-02-23T01:22:48;100192.59;;;5.21;70.91
79123;BME280;68526;44.600;26.032;2024-02-23T01:23:04;100192.31;;;5.22;70.60
79123;BME280;68526;44.600;26.032;2024-02-23T01:23:20;100191.22;;;5.23;70.44
79123;BME280;68526;44.600;26.032;2024-02-23T01:23:35;100196.38;;;5.25;70.68
79123;BME280;68526;44.600;26.032;2024-02-23T01:23:51;100188.81;;;5.22;70.39
79123;BME280;68526;44.600;26.032;2024-02-23T01:24:07;100195.56;;;5.24;70.40
79123;BME280;68526;44.600;26.032;2024-02-23T01:24:25;100193.41;;;5.21;71.25
79123;BME280;68526;44.600;26.032;2024-02-23T01:24:43;100189.38;;;5.19;71.27
79123;BME280;68526;44.600;26.032;2024-02-23T01:24:59;100195.31;;;5.21;70.66
79123;BME280;68526;44.600;26.032;2024-02-23T01:25:15;100189.63;;;5.22;70.98
79123;BME280;68526;44.600;26.032;2024-02-23T01:25:31;100192.31;;;5.22;71.02
79123;BME280;68526;44.600;26.032;2024-02-23T01:25:47;100182.78;;;5.25;71.01
79123;BME280;68526;44.600;26.032;2024-02-23T01:26:03;100186.31;;;5.25;70.89